Latest Coastal Weather Observations for Wynyard

IDV60701

Issued at 10:45 pm EST Thursday 2 October 2014 (issued every 10 minutes, with the page automatically refreshed every 10 minutes)

About coastal observations | Map of coastal stations | Coastal observations for VIC | Marine services | Other Formats
Station Details ID: 091107 Name: WYNYARD AIRPORT Lat: -41.00 Lon: 145.73 Height: 12.0 m
Data from the previous 72 hours. | See also: Recent months at Wynyard
Date/Time
EST
Temp

°C
Wind Pressure Rain
since 9am
mm
Weather Cloud Vis
km
Sea
Height
m
Swell
Dir
 
Speed
knots
Gust
knots
hPa Trend Height
m
Period
s
Dir
02/10:30pm 8.1 W 10 13 1021.3 - 0.2 - - 10 - - - -
02/10:00pm 8.9 WNW 10 12 1021.2 - 0.2 - - 10 - - - -
02/09:30pm 9.4 NW 8 10 1021.1 - 0.2 - - 10 - - - -
02/09:00pm 9.5 W 7 11 1021.0 - 0.2 - - 10 - - - -
02/08:30pm 9.8 W 9 12 1020.6 - 0.2 - - 10 - - - -
02/08:00pm 10.0 WSW 13 18 1020.3 - 0.2 - - 10 - - - -
02/07:30pm 10.7 SW 12 17 1020.0 - 0.2 - - 10 - - - -
02/07:00pm 11.3 SW 11 16 1019.5 - 0.2 - Partly cloudy 10 - - - -
02/06:30pm 11.8 WSW 14 20 1019.3 - 0.2 - Partly cloudy 10 - - - -
02/06:00pm 12.5 SW 8 15 1018.9 - 0.2 - Cloudy 10 - - - -
02/05:30pm 13.6 WSW 13 20 1018.6 - 0.2 - Partly cloudy 10 - - - -
02/05:00pm 14.0 WSW 14 18 1018.0 - 0.2 - Partly cloudy 10 - - - -
02/04:30pm 15.0 WSW 15 24 1017.7 - 0.2 - Partly cloudy 10 - - - -
02/04:00pm 15.3 WSW 12 23 1017.6 - 0.2 - Partly cloudy 10 - - - -
02/03:30pm 15.7 SW 11 19 1017.3 - 0.2 - Partly cloudy 10 - - - -
02/03:00pm 16.6 WSW 17 24 1017.1 - 0.2 - Cloudy 10 - - - -
02/02:30pm 16.3 SW 12 19 1016.9 - 0.2 - Partly cloudy 10 - - - -
02/02:00pm 16.5 SW 13 19 1016.9 - 0.2 - Partly cloudy 10 - - - -
02/01:30pm 16.8 WSW 16 27 1016.7 - 0.2 - Partly cloudy 10 - - - -
02/01:10pm 16.8 WSW 17 29 1016.6 - 0.2 - Partly cloudy 10 - - - -
02/01:00pm 16.7 WSW 19 24 1016.5 - 0.2 - Partly cloudy 10 - - - -
02/12:46pm 15.6 SSW 17 22 1016.6 - 0.2 - Partly cloudy 10 - - - -
02/12:30pm 17.1 WSW 21 31 1016.6 - 0.2 - Partly cloudy 10 - - - -
02/12:12pm 16.9 WSW 20 30 1016.4 - 0.2 - Partly cloudy 10 - - - -
02/12:00pm 16.4 WSW 18 25 1016.5 - 0.2 - Partly cloudy 10 - - - -
02/11:30am 16.2 WSW 23 30 1016.5 - 0.2 - Partly cloudy 10 - - - -
02/11:00am 15.5 WSW 19 29 1016.6 - 0.2 - Partly cloudy 10 - - - -
02/10:36am 15.4 WSW 18 29 1016.6 - 0.2 - - 10 - - - -
02/10:30am 15.1 WSW 19 27 1016.6 - 0.2 - - 10 - - - -
02/10:00am 14.7 WSW 23 33 1016.7 - 0.0 - Partly cloudy 10 - - - -
02/09:36am 14.9 WSW 19 29 1016.6 - 0.0 - Partly cloudy 10 - - - -
02/09:30am 14.5 WSW 20 29 1016.6 - 0.0 - Partly cloudy 10 - - - -
02/09:29am 14.7 WSW 19 29 1016.6 - 0.0 - Partly cloudy 10 - - - -
02/09:00am 13.1 WSW 21 28 1016.6 - 0.2 - Partly cloudy 10 - - - -
02/08:31am 13.1 WSW 19 29 1016.6 - 0.2 - Partly cloudy 10 - - - -
02/08:30am 13.0 WSW 19 28 1016.6 - 0.2 - Partly cloudy 10 - - - -
02/08:00am 12.7 WSW 17 24 1016.3 - 0.2 - - 10 - - - -
02/07:30am 12.0 W 15 22 1016.2 - 0.2 - - 10 - - - -
02/07:00am 11.2 WSW 13 22 1016.3 - 0.2 - Partly cloudy 10 - - - -
02/06:30am 10.5 W 11 16 1016.2 - 0.2 - - 10 - - - -
02/06:00am 10.0 W 12 18 1016.0 - 0.2 - Cloudy 10 - - - -
02/05:30am 10.3 W 16 22 1015.9 - 0.2 - Partly cloudy 10 - - - -
02/05:00am 10.5 W 16 21 1015.9 - 0.2 - Partly cloudy 10 - - - -
02/04:30am 10.7 W 15 21 1015.9 - 0.2 - Partly cloudy 10 - - - -
02/04:00am 10.4 W 14 19 1016.0 - 0.2 - Partly cloudy 10 - - - -
02/03:30am 10.5 W 14 21 1016.1 - 0.2 - Partly cloudy 10 - - - -
02/03:00am 10.5 W 16 21 1016.4 - 0.2 - Mostly cloudy 10 - - - -
02/02:37am 10.3 W 15 22 1016.5 - 0.2 - Partly cloudy 10 - - - -
02/02:30am 10.1 W 13 17 1016.6 - 0.2 - Partly cloudy 10 - - - -
02/02:28am 10.2 W 12 17 1016.7 - 0.2 - Partly cloudy 10 - - - -
02/02:05am 10.6 WNW 9 11 1016.8 - 0.2 - Partly cloudy 6 - - - -
02/02:00am 10.6 WNW 9 11 1016.9 - 0.2 - Partly cloudy 5 - - - -
02/01:51am 10.7 W 11 14 1016.9 - 0.2 - Partly cloudy 5 - - - -
02/01:30am 10.4 W 12 17 1017.1 - 0.2 - Partly cloudy 10 - - - -
02/01:00am 10.4 W 13 17 1017.3 - 0.2 - Partly cloudy 10 - - - -
02/12:30am 10.8 W 11 14 1017.8 - 0.2 - Partly cloudy 10 - - - -
02/12:00am 10.5 W 9 12 1017.9 - 0.2 - Mostly cloudy 10 - - - -
 
Date/Time
EST
Temp

°C
Wind Pressure Rain
since 9am
mm
Weather Cloud Vis
km
Sea
Height
m
Swell
Dir
 
Speed
knots
Gust
knots
hPa Trend Height
m
Period
s
Dir
01/11:30pm 10.6 W 10 16 1018.1 - 0.2 - Partly cloudy 10 - - - -
01/11:00pm 10.6 W 11 15 1018.2 - 0.2 - Partly cloudy 10 - - - -
01/10:30pm 10.5 W 9 13 1018.4 - 0.2 - Partly cloudy 10 - - - -
01/10:19pm 10.5 NW 8 12 1018.4 - 0.2 - Partly cloudy 10 - - - -
01/10:18pm 10.5 NW 7 11 1018.4 - 0.2 - Partly cloudy 10 - - - -
01/10:00pm 10.5 NW 8 10 1018.7 - 0.2 - Partly cloudy 4 - - - -
01/09:56pm 10.5 NW 8 11 1018.7 - 0.2 - Partly cloudy 5 - - - -
01/09:34pm 10.3 NW 8 10 1018.9 - 0.0 - Partly cloudy 10 - - - -
01/09:30pm 10.2 NW 7 10 1019.0 - 0.0 - Partly cloudy 10 - - - -
01/09:29pm 10.2 NW 7 10 1019.0 - 0.0 - Partly cloudy 10 - - - -
01/09:13pm 10.1 NW 7 9 1019.3 - 0.0 - Partly cloudy 6 - - - -
01/09:09pm 10.0 NW 7 9 1019.3 - 0.0 - Partly cloudy 5 - - - -
01/09:00pm 9.9 NW 6 9 1019.3 - 0.0 - Cloudy 8 - - - -
01/08:57pm 9.9 NW 7 9 1019.3 - 0.0 - Partly cloudy 6 - - - -
01/08:32pm 9.7 NNW 6 7 1019.5 - 0.0 - Partly cloudy 5 - - - -
01/08:30pm 9.7 NNW 6 7 1019.5 - 0.0 - Partly cloudy 6 - - - -
01/08:00pm 9.8 NW 7 9 1019.7 - 0.0 - Partly cloudy 6 - - - -
01/07:56pm 9.7 NW 7 9 1019.7 - 0.0 - Partly cloudy 6 - - - -
01/07:50pm 9.6 NW 6 9 1019.8 - 0.0 - Partly cloudy 8 - - - -
01/07:37pm 9.9 NW 7 10 1019.7 - 0.0 - Partly cloudy 5 - - - -
01/07:30pm 9.9 NW 7 10 1019.8 - 0.0 - Partly cloudy 10 - - - -
01/07:00pm 10.0 NW 7 10 1019.6 - 0.0 - Partly cloudy 10 - - - -
01/06:30pm 10.4 WNW 10 14 1019.6 - 0.0 - Partly cloudy 10 - - - -
01/06:00pm 10.8 W 12 15 1019.4 - 0.0 - Cloudy 10 - - - -
01/05:30pm 11.5 W 9 14 1019.2 - 0.0 - Partly cloudy 10 - - - -
01/05:00pm 11.6 W 13 19 1019.0 - 0.0 - Partly cloudy 10 - - - -
01/04:30pm 11.9 W 13 15 1018.7 - 0.0 - Partly cloudy 10 - - - -
01/04:00pm 12.4 W 18 23 1018.6 - 0.0 - Partly cloudy 10 - - - -
01/03:30pm 12.7 WSW 15 20 1018.5 - 0.0 - Partly cloudy 10 - - - -
01/03:00pm 12.4 W 16 24 1018.4 - 0.0 - Partly cloudy 10 - - - -
01/02:30pm 12.7 WSW 15 24 1018.2 - 0.0 - Partly cloudy 10 - - - -
01/02:00pm 12.0 W 19 25 1018.5 - 0.0 - Partly cloudy 10 - - - -
01/01:30pm 14.4 WSW 17 25 1018.2 - 0.0 - Cloudy 10 - - - -
01/01:00pm 14.2 WSW 15 22 1018.2 - 0.0 - Partly cloudy 10 - - - -
01/12:30pm 12.3 WSW 20 31 1018.0 - 0.0 - Partly cloudy 10 - - - -
01/12:27pm 12.7 WSW 17 31 1017.8 - 0.0 - Partly cloudy 10 - - - -
01/12:00pm 13.7 WSW 15 19 1018.3 - 0.0 - Cloudy 10 - - - -
01/11:38am 14.4 WSW 16 26 1017.9 - 0.0 - Partly cloudy 10 - - - -
01/11:30am 13.5 W 19 26 1017.8 - 0.0 - Partly cloudy 10 - - - -
01/11:15am 13.5 W 15 25 1017.7 - 0.0 - Partly cloudy 10 - - - -
01/11:00am 13.2 WSW 13 20 1017.6 - 0.0 - Partly cloudy 10 - - - -
01/10:43am 12.8 W 17 27 1017.7 - 0.0 - Partly cloudy 10 - - - -
01/10:30am 13.6 W 18 23 1017.7 - 0.0 - Partly cloudy 10 - - - -
01/10:00am 12.7 W 13 20 1017.7 - 0.0 - Partly cloudy 10 - - - -
01/09:30am 12.3 WSW 12 18 1017.6 - 0.0 - - 10 - - - -
01/09:00am 11.7 W 12 17 1017.3 - 19.8 - - 10 - - - -
01/08:30am 9.7 WNW 9 11 1017.1 - 19.8 - Partly cloudy 10 - - - -
01/08:00am 9.4 NNW 9 11 1016.8 - 19.8 - - 10 - - - -
01/07:30am 8.4 NNW 7 10 1016.3 - 19.8 - Partly cloudy 10 - - - -
01/07:00am 6.6 NNW 8 12 1015.7 - 19.8 - - 10 - - - -
01/06:30am 5.5 WNW 7 8 1015.1 - 19.8 - - 10 - - - -
01/06:00am 5.5 WSW 10 15 1014.2 - 19.8 - - 10 - - - -
01/05:30am 4.9 WSW 10 11 1013.5 - 19.8 - - 10 - - - -
01/05:00am 5.2 SW 11 15 1013.2 - 19.8 - - 10 - - - -
01/04:30am 5.2 WSW 10 13 1012.6 - 19.8 - - 10 - - - -
01/04:00am 5.4 WSW 13 17 1011.7 - 19.8 - Partly cloudy 10 - - - -
01/03:30am 6.3 WSW 16 24 1011.5 - 19.6 - Partly cloudy 10 - - - -
01/03:00am 6.1 SW 15 21 1011.0 - 19.4 - Partly cloudy 10 - - - -
01/02:30am 5.2 WSW 12 15 1010.3 - 19.4 - - 10 - - - -
01/02:00am 4.5 WSW 9 14 1009.8 - 19.4 - Partly cloudy 10 - - - -
01/01:30am 3.2 W 6 8 1009.8 - 19.4 - Partly cloudy 10 - - - -
01/01:00am 3.2 W 6 7 1009.4 - 19.4 - - 10 - - - -
01/12:30am 4.5 WSW 6 9 1009.1 - 19.4 - Partly cloudy 10 - - - -
01/12:00am 4.9 WSW 7 10 1009.0 - 19.0 Recent precip. Cloudy 10 - - - -
 
Date/Time
EST
Temp

°C
Wind Pressure Rain
since 9am
mm
Weather Cloud Vis
km
Sea
Height
m
Swell
Dir
 
Speed
knots
Gust
knots
hPa Trend Height
m
Period
s
Dir
30/11:30pm 4.7 WSW 11 20 1008.7 - 18.6 - Partly cloudy 10 - - - -
30/11:00pm 3.9 W 7 8 1007.5 - 18.4 - Partly cloudy 10 - - - -
30/10:30pm 5.1 WSW 14 20 1007.6 - 18.4 - Partly cloudy 10 - - - -
30/10:15pm 5.8 WSW 16 23 1007.7 - 17.8 - Partly cloudy 10 - - - -
30/10:00pm 6.0 W 10 12 1006.8 - 17.6 - Partly cloudy 10 - - - -
30/09:50pm 6.5 WSW 20 23 1007.1 - 17.2 - Partly cloudy 10 - - - -
30/09:30pm 7.3 W 10 16 1006.4 - 17.2 - Partly cloudy 10 - - - -
30/09:00pm 6.5 W 9 12 1005.4 - 17.2 - Cloudy 10 - - - -
30/08:30pm 5.6 W 8 9 1004.7 - 17.2 - - 10 - - - -
30/08:00pm 6.5 WSW 9 11 1004.5 - 17.2 - Partly cloudy 10 - - - -
30/07:30pm 7.1 WSW 12 16 1003.8 - 17.2 - Partly cloudy 10 - - - -
30/07:00pm 6.5 W 10 12 1002.7 - 17.2 - - 10 - - - -
30/06:30pm 6.7 W 13 15 1002.0 - 17.2 - - 10 - - - -
30/06:00pm 7.5 WSW 19 29 1001.2 - 17.2 Rain Cloudy 8 - - - -
30/05:53pm 7.8 WSW 18 28 1001.1 - 17.0 - Partly cloudy 6 - - - -
30/05:30pm 8.4 W 13 18 1000.1 - 16.2 - Partly cloudy 10 - - - -
30/05:00pm 8.5 WSW 12 17 999.4 - 16.2 - Partly cloudy 10 - - - -
30/04:30pm 8.8 WSW 18 36 999.3 - 16.2 - Partly cloudy 10 - - - -
30/04:11pm 9.6 W 22 35 999.5 - 16.0 - Partly cloudy 9 - - - -
30/04:00pm 10.2 W 19 24 998.1 - 16.0 - Partly cloudy 10 - - - -
30/03:30pm 10.8 W 14 18 997.0 - 15.8 - Partly cloudy 10 - - - -
30/03:00pm 11.2 W 15 19 997.0 - 15.4 Rain Cloudy 10 - - - -
30/02:30pm 12.8 WNW 13 17 996.5 - 15.0 - Partly cloudy 10 - - - -
30/02:00pm 13.1 W 16 24 996.5 - 14.8 - Partly cloudy 10 - - - -
30/01:30pm 12.8 WNW 15 21 996.4 - 14.8 - Partly cloudy 10 - - - -
30/01:00pm 11.7 NW 15 21 997.5 - 14.2 - Partly cloudy 7 - - - -
30/12:56pm 11.8 NW 15 20 997.5 - 14.0 - Partly cloudy 8 - - - -
30/12:49pm 11.7 NW 16 25 997.6 - 13.8 - Partly cloudy 6 - - - -
30/12:40pm 11.5 NW 21 31 997.8 - 13.2 - Partly cloudy 4 - - - -
30/12:30pm 11.1 WNW 22 30 998.1 - 12.4 - Partly cloudy 1 - - - -
30/12:25pm 10.6 W 20 30 998.2 - 10.4 - Partly cloudy 3 - - - -
30/12:00pm 12.7 NW 16 26 998.1 - 6.6 Rain Cloudy 2 - - - -
30/11:56am 12.8 NW 17 26 998.4 - 5.8 - Partly cloudy 2 - - - -
30/11:34am 13.1 NW 17 27 998.7 - 2.0 - Partly cloudy 4 - - - -
30/11:30am 13.0 NW 19 27 998.9 - 1.8 - Partly cloudy 4 - - - -
30/11:14am 13.2 NW 22 33 999.1 - 0.4 - Partly cloudy 5 - - - -
30/11:04am 13.2 NNW 20 30 999.2 - 0.2 - Partly cloudy 5 - - - -
30/11:00am 13.4 NNW 19 28 999.3 - 0.2 - Partly cloudy 5 - - - -
30/10:59am 13.5 NNW 19 28 999.2 - 0.2 - Partly cloudy 5 - - - -
30/10:41am 14.0 NNW 20 29 999.5 - 0.0 - Partly cloudy 9 - - - -
30/10:30am 14.0 NNW 21 35 999.7 - 0.0 - Partly cloudy 9 - - - -
30/10:03am 13.7 NNW 20 30 1000.1 - 0.0 - Partly cloudy 7 - - - -
30/10:00am 13.7 NNW 21 30 1000.2 - 0.0 - Partly cloudy 7 - - - -
30/09:34am 14.9 NNW 18 28 1000.8 - 0.0 - Cloudy 8 - - - -
30/09:30am 14.7 NNW 19 28 1000.9 - 0.0 - Cloudy 9 - - - -
30/09:28am 14.5 NNW 18 28 1000.9 - 0.0 - Cloudy 9 - - - -
30/09:00am 14.2 NW 17 24 1001.7 - 0.2 - Cloudy 10 - - - -
30/08:49am 13.6 NW 15 25 1002.0 - 0.2 - Cloudy 10 - - - -
30/08:30am 13.4 NW 15 21 1002.4 - 0.2 - Partly cloudy 10 - - - -
30/08:12am 13.1 NNW 15 21 1002.6 - 0.2 - Partly cloudy 10 - - - -
30/08:00am 12.9 NNW 14 19 1002.8 - 0.2 - Partly cloudy 5 - - - -
30/07:57am 12.9 NNW 14 19 1002.8 - 0.2 - Partly cloudy 5 - - - -
30/07:30am 13.2 NW 14 20 1003.4 - 0.2 - Partly cloudy 8 - - - -
30/07:00am 13.4 NNW 13 20 1003.6 - 0.2 - Partly cloudy 10 - - - -
30/06:30am 13.2 NW 16 23 1004.1 - 0.2 - Partly cloudy 10 - - - -
30/06:00am 13.2 NNW 15 23 1004.0 - 0.2 - Mostly cloudy 10 - - - -
30/05:30am 13.1 NNW 13 19 1004.2 - 0.2 - Partly cloudy 10 - - - -
30/05:00am 12.8 NNW 10 15 1004.3 - 0.2 - Partly cloudy 10 - - - -
30/04:30am 12.7 NNW 9 13 1004.7 - 0.2 - Partly cloudy 10 - - - -
30/04:00am 11.6 NW 6 9 1005.0 - 0.2 - Cloudy 10 - - - -
30/03:30am 9.0 W 3 4 1005.4 - 0.2 - Partly cloudy 10 - - - -
30/03:00am 9.9 W 4 5 1006.1 - 0.2 - Mostly clear 10 - - - -
30/02:30am 10.2 WNW 6 8 1006.5 - 0.2 - Partly cloudy 10 - - - -
30/02:00am 9.7 W 5 7 1006.9 - 0.2 - Partly cloudy 10 - - - -
30/01:30am 11.6 WNW 5 7 1007.5 - 0.2 - Partly cloudy 10 - - - -
30/01:00am 12.6 NW 8 11 1008.0 - 0.2 - Partly cloudy 10 - - - -
30/12:30am 12.5 NW 7 9 1008.2 - 0.2 - Partly cloudy 10 - - - -
30/12:00am 12.9 WNW 9 13 1008.5 - 0.2 - Mostly cloudy 10 - - - -
 
Date/Time
EST
Temp

°C
Wind Pressure Rain
since 9am
mm
Weather Cloud Vis
km
Sea
Height
m
Swell
Dir
 
Speed
knots
Gust
knots
hPa Trend Height
m
Period
s
Dir
29/11:30pm 12.8 WNW 10 15 1008.8 - 0.2 - Partly cloudy 10 - - - -
29/11:00pm 12.8 WNW 8 11 1009.0 - 0.2 - Partly cloudy 10 - - - -

Other Formats:

Comma delimited format used in spreadsheet applications
http://www.bom.gov.au/fwo/IDV60701/IDV60701.95957.axf

JavaScript Object Notation format (JSON) in row-major order
http://www.bom.gov.au/fwo/IDV60701/IDV60701.95957.json